createdAt,value
2018-05-18T00:00:45.621Z,1017.92
2018-05-18T00:01:45.657Z,1017.88
2018-05-18T00:02:45.934Z,1017.90
2018-05-18T00:03:45.715Z,1017.84
2018-05-18T00:04:45.748Z,1017.88
2018-05-18T00:05:45.778Z,1017.84
2018-05-18T00:06:45.809Z,1017.88
2018-05-18T00:07:45.842Z,1017.87
2018-05-18T00:08:46.172Z,1017.84
2018-05-18T00:09:45.904Z,1017.86
2018-05-18T00:10:45.931Z,1017.88
2018-05-18T00:11:45.962Z,1017.83
2018-05-18T00:12:45.993Z,1017.86
2018-05-18T00:13:46.033Z,1017.87
2018-05-18T00:14:46.309Z,1017.81
2018-05-18T00:15:46.094Z,1017.79
2018-05-18T00:16:46.121Z,1017.77
2018-05-18T00:17:46.160Z,1017.76
2018-05-18T00:18:46.195Z,1017.75
2018-05-18T00:19:46.216Z,1017.71
2018-05-18T00:20:46.491Z,1017.77
2018-05-18T00:21:46.272Z,1017.77
2018-05-18T00:22:46.316Z,1017.76
2018-05-18T00:23:46.337Z,1017.74
2018-05-18T00:24:46.369Z,1017.73
2018-05-18T00:25:46.406Z,1017.74
2018-05-18T00:26:46.431Z,1017.74
2018-05-18T00:27:46.467Z,1017.75
2018-05-18T00:28:46.493Z,1017.77
2018-05-18T00:29:46.522Z,1017.76
2018-05-18T00:30:46.615Z,1017.75
2018-05-18T00:31:46.582Z,1017.77
2018-05-18T00:32:46.938Z,1017.74
2018-05-18T00:33:46.688Z,1017.76
2018-05-18T00:34:46.678Z,1017.77
2018-05-18T00:35:46.713Z,1017.77
2018-05-18T00:36:46.751Z,1017.75
2018-05-18T00:37:46.768Z,1017.75
2018-05-18T00:38:46.816Z,1017.73
2018-05-18T00:39:47.083Z,1017.76
2018-05-18T00:40:46.868Z,1017.78
2018-05-18T00:41:46.897Z,1017.79
2018-05-18T00:42:46.938Z,1017.77
2018-05-18T00:43:46.989Z,1017.80
2018-05-18T00:44:47.003Z,1017.78
2018-05-18T00:45:47.021Z,1017.79
2018-05-18T00:46:47.299Z,1017.76
2018-05-18T00:47:47.083Z,1017.78
2018-05-18T00:48:47.112Z,1017.81
2018-05-18T00:49:47.143Z,1017.79
2018-05-18T00:50:47.213Z,1017.76
2018-05-18T00:51:47.228Z,1017.78
2018-05-18T00:52:47.233Z,1017.75
2018-05-18T00:53:47.590Z,1017.76
2018-05-18T00:54:47.300Z,1017.79
2018-05-18T00:55:47.382Z,1017.77
2018-05-18T00:56:47.361Z,1017.77
2018-05-18T00:57:47.396Z,1017.79
2018-05-18T00:58:47.425Z,1017.81
2018-05-18T00:59:47.460Z,1017.75
2018-05-18T01:00:47.789Z,1017.76
2018-05-18T01:01:47.537Z,1017.77
2018-05-18T01:02:47.604Z,1017.76
2018-05-18T01:03:47.580Z,1017.75
2018-05-18T01:04:47.612Z,1017.80
2018-05-18T01:05:47.638Z,1017.78
2018-05-18T01:06:47.675Z,1017.78
2018-05-18T01:07:47.998Z,1017.77
2018-05-18T01:08:47.733Z,1017.82
2018-05-18T01:09:47.766Z,1017.83
2018-05-18T01:10:47.821Z,1017.81
2018-05-18T01:11:47.830Z,1017.81
2018-05-18T01:12:47.853Z,1017.80
2018-05-18T01:13:47.889Z,1017.82
2018-05-18T01:14:48.176Z,1017.77
2018-05-18T01:15:47.971Z,1017.83
2018-05-18T01:16:47.984Z,1017.75
2018-05-18T01:17:48.009Z,1017.77
2018-05-18T01:18:48.052Z,1017.81
2018-05-18T01:19:48.077Z,1017.73
2018-05-18T01:20:48.113Z,1017.76
2018-05-18T01:21:48.449Z,1017.76
2018-05-18T01:22:48.171Z,1017.76
2018-05-18T01:23:48.197Z,1017.80
2018-05-18T01:24:48.235Z,1017.77
2018-05-18T01:25:48.256Z,1017.78
2018-05-18T01:26:48.293Z,1017.78
2018-05-18T01:27:48.322Z,1017.79
2018-05-18T01:28:48.698Z,1017.79
2018-05-18T01:29:48.433Z,1017.78
2018-05-18T01:30:48.413Z,1017.81
2018-05-18T01:31:48.444Z,1017.78
2018-05-18T01:32:48.541Z,1017.79
2018-05-18T01:33:48.510Z,1017.77
2018-05-18T01:34:48.542Z,1017.81
2018-05-18T01:35:48.877Z,1017.80
2018-05-18T01:36:48.597Z,1017.84
2018-05-18T01:37:48.630Z,1017.82
2018-05-18T01:38:48.722Z,1017.79
2018-05-18T01:39:48.709Z,1017.76
2018-05-18T01:40:48.724Z,1017.75
2018-05-18T01:41:48.754Z,1017.77
2018-05-18T01:42:49.214Z,1017.72
2018-05-18T01:43:48.880Z,1017.74
2018-05-18T01:44:48.847Z,1017.71
2018-05-18T01:45:48.877Z,1017.76
2018-05-18T01:46:48.905Z,1017.73
2018-05-18T01:47:48.944Z,1017.70
2018-05-18T01:48:48.969Z,1017.68
2018-05-18T01:49:49.255Z,1017.76
2018-05-18T01:50:49.036Z,1017.74
2018-05-18T01:51:49.094Z,1017.77
2018-05-18T01:52:49.104Z,1017.69
2018-05-18T01:53:49.126Z,1017.71
2018-05-18T01:54:49.150Z,1017.64
2018-05-18T01:55:49.487Z,1017.65
2018-05-18T01:56:49.218Z,1017.63
2018-05-18T01:57:49.288Z,1017.64
2018-05-18T01:58:49.336Z,1017.65
2018-05-18T01:59:49.330Z,1017.70
2018-05-18T02:00:49.340Z,1017.72
2018-05-18T02:01:49.623Z,1017.68
2018-05-18T02:02:49.405Z,1017.68
2018-05-18T02:03:49.430Z,1017.71
2018-05-18T02:04:49.469Z,1017.70
2018-05-18T02:05:49.495Z,1017.72
2018-05-18T02:06:49.548Z,1017.71
2018-05-18T02:07:49.826Z,1017.71
2018-05-18T02:08:49.605Z,1017.67
2018-05-18T02:09:49.684Z,1017.68
2018-05-18T02:10:49.650Z,1017.70
2018-05-18T02:11:49.689Z,1017.70
2018-05-18T02:12:49.710Z,1017.69
2018-05-18T02:13:49.994Z,1017.76
2018-05-18T02:14:49.775Z,1017.80
2018-05-18T02:15:49.807Z,1017.75
2018-05-18T02:16:49.841Z,1017.70
2018-05-18T02:17:49.909Z,1017.72
2018-05-18T02:18:49.900Z,1017.73
2018-05-18T02:19:50.263Z,1017.69
2018-05-18T02:20:49.957Z,1017.75
2018-05-18T02:21:49.989Z,1017.74
2018-05-18T02:22:50.018Z,1017.74
2018-05-18T02:23:50.060Z,1017.76
2018-05-18T02:24:50.089Z,1017.75
2018-05-18T02:25:50.423Z,1017.80
2018-05-18T02:26:50.140Z,1017.77
2018-05-18T02:27:50.189Z,1017.77
2018-05-18T02:28:50.204Z,1017.78
2018-05-18T02:29:50.245Z,1017.76
2018-05-18T02:30:50.276Z,1017.75
2018-05-18T02:31:50.641Z,1017.74
2018-05-18T02:32:50.354Z,1017.72
2018-05-18T02:33:50.362Z,1017.73
2018-05-18T02:34:50.400Z,1017.72
2018-05-18T02:35:50.421Z,1017.72
2018-05-18T02:36:50.467Z,1017.71
2018-05-18T02:37:50.808Z,1017.74
2018-05-18T02:38:50.529Z,1017.70
2018-05-18T02:39:50.541Z,1017.76
2018-05-18T02:40:50.608Z,1017.76
2018-05-18T02:41:50.637Z,1017.79
2018-05-18T02:42:50.636Z,1017.75
2018-05-18T02:43:50.983Z,1017.73
2018-05-18T02:44:50.721Z,1017.75
2018-05-18T02:45:50.780Z,1017.76
2018-05-18T02:46:50.843Z,1017.72
2018-05-18T02:47:50.801Z,1017.80
2018-05-18T02:48:50.825Z,1017.75
2018-05-18T02:49:51.121Z,1017.81
2018-05-18T02:50:50.878Z,1017.79
2018-05-18T02:51:50.942Z,1017.84
2018-05-18T02:52:50.985Z,1017.81
2018-05-18T02:53:50.988Z,1017.80
2018-05-18T02:54:51.006Z,1017.86
2018-05-18T02:55:51.051Z,1017.84
2018-05-18T02:56:51.073Z,1017.82
2018-05-18T02:57:51.159Z,1017.86
2018-05-18T02:58:51.134Z,1017.84
2018-05-18T02:59:51.161Z,1017.86
2018-05-18T03:00:51.210Z,1017.86
2018-05-18T03:01:51.522Z,1017.83
2018-05-18T03:02:51.253Z,1017.80
2018-05-18T03:03:51.379Z,1017.78
2018-05-18T03:04:51.317Z,1017.76
2018-05-18T03:05:51.408Z,1017.76
2018-05-18T03:06:51.386Z,1017.75
2018-05-18T03:07:51.420Z,1017.77
2018-05-18T03:08:51.693Z,1017.79
2018-05-18T03:09:51.475Z,1017.80
2018-05-18T03:10:51.505Z,1017.77
2018-05-18T03:11:51.528Z,1017.73
2018-05-18T03:12:51.592Z,1017.77
2018-05-18T03:13:51.590Z,1017.75
2018-05-18T03:14:51.620Z,1017.76
2018-05-18T03:15:51.962Z,1017.78
2018-05-18T03:16:51.683Z,1017.77
2018-05-18T03:17:51.719Z,1017.79
2018-05-18T03:18:51.745Z,1017.82
2018-05-18T03:19:51.774Z,1017.80
2018-05-18T03:20:51.809Z,1017.77
2018-05-18T03:21:51.835Z,1017.78
2018-05-18T03:22:52.170Z,1017.77
2018-05-18T03:23:51.911Z,1017.80
2018-05-18T03:24:51.941Z,1017.79
2018-05-18T03:25:52.010Z,1017.76
2018-05-18T03:26:52.007Z,1017.75
2018-05-18T03:27:52.031Z,1017.76
2018-05-18T03:28:52.056Z,1017.76
2018-05-18T03:29:52.388Z,1017.76
2018-05-18T03:30:52.122Z,1017.79
2018-05-18T03:31:52.143Z,1017.77
2018-05-18T03:32:52.194Z,1017.77
2018-05-18T03:33:52.205Z,1017.82
2018-05-18T03:34:52.234Z,1017.81
2018-05-18T03:35:52.266Z,1017.78
2018-05-18T03:36:52.300Z,1017.83
2018-05-18T03:37:52.337Z,1017.78
2018-05-18T03:38:52.362Z,1017.80
2018-05-18T03:39:52.400Z,1017.80
2018-05-18T03:40:52.449Z,1017.75
2018-05-18T03:41:52.454Z,1017.78
2018-05-18T03:42:52.786Z,1017.77
2018-05-18T03:43:52.511Z,1017.81
2018-05-18T03:44:52.554Z,1017.81
2018-05-18T03:45:52.576Z,1017.83
2018-05-18T03:46:52.620Z,1017.83
2018-05-18T03:47:52.712Z,1017.81
2018-05-18T03:48:52.666Z,1017.82
2018-05-18T03:49:52.949Z,1017.84
2018-05-18T03:50:52.737Z,1017.86
2018-05-18T03:51:52.766Z,1017.95
2018-05-18T03:52:52.802Z,1017.90
2018-05-18T03:53:52.824Z,1017.91
2018-05-18T03:54:52.854Z,1017.88
2018-05-18T03:55:52.891Z,1017.95
2018-05-18T03:56:53.213Z,1017.92
2018-05-18T03:57:52.995Z,1017.93
2018-05-18T03:58:52.980Z,1017.88
2018-05-18T03:59:53.103Z,1017.94
2018-05-18T04:00:53.066Z,1017.92
2018-05-18T04:01:53.140Z,1017.96
2018-05-18T04:02:53.278Z,1017.97
2018-05-18T04:03:53.379Z,1018.00
2018-05-18T04:04:53.183Z,1017.97
2018-05-18T04:05:53.232Z,1018.02
2018-05-18T04:06:53.245Z,1018.00
2018-05-18T04:07:53.339Z,1017.99
2018-05-18T04:08:53.284Z,1017.98
2018-05-18T04:09:53.321Z,1018.04
2018-05-18T04:10:53.590Z,1018.05
2018-05-18T04:11:53.374Z,1018.09
2018-05-18T04:12:53.406Z,1018.06
2018-05-18T04:13:53.528Z,1018.08
2018-05-18T04:14:53.471Z,1018.13
2018-05-18T04:15:53.498Z,1018.03
2018-05-18T04:16:53.526Z,1018.08
2018-05-18T04:17:53.824Z,1018.07
2018-05-18T04:18:53.591Z,1018.09
2018-05-18T04:19:53.718Z,1018.12
2018-05-18T04:20:53.715Z,1018.11
2018-05-18T04:21:53.696Z,1018.09
2018-05-18T04:22:53.770Z,1018.11
2018-05-18T04:23:53.747Z,1018.10
2018-05-18T04:24:54.030Z,1018.14
2018-05-18T04:25:53.853Z,1018.20
2018-05-18T04:26:53.843Z,1018.19
2018-05-18T04:27:53.867Z,1018.21
2018-05-18T04:28:53.898Z,1018.25
2018-05-18T04:29:53.930Z,1018.22
2018-05-18T04:30:54.303Z,1018.20
2018-05-18T04:31:53.995Z,1018.25
2018-05-18T04:32:54.035Z,1018.25
2018-05-18T04:33:54.048Z,1018.23
2018-05-18T04:34:54.083Z,1018.25
2018-05-18T04:35:54.116Z,1018.24
2018-05-18T04:36:54.393Z,1018.22
2018-05-18T04:37:54.192Z,1018.27
2018-05-18T04:38:54.273Z,1018.26
2018-05-18T04:39:54.246Z,1018.28
2018-05-18T04:40:54.284Z,1018.27
2018-05-18T04:41:54.303Z,1018.22
2018-05-18T04:42:54.704Z,1018.26
2018-05-18T04:43:54.389Z,1018.26
2018-05-18T04:44:54.398Z,1018.20
2018-05-18T04:45:54.635Z,1018.26
2018-05-18T04:46:54.560Z,1018.22
2018-05-18T04:47:54.482Z,1018.20
2018-05-18T04:48:54.826Z,1018.27
2018-05-18T04:49:54.549Z,1018.22
2018-05-18T04:50:54.596Z,1018.22
2018-05-18T04:51:54.620Z,1018.22
2018-05-18T04:52:54.718Z,1018.25
2018-05-18T04:53:54.670Z,1018.29
2018-05-18T04:54:55.017Z,1018.32
2018-05-18T04:55:54.734Z,1018.30
2018-05-18T04:56:54.810Z,1018.34
2018-05-18T04:57:54.816Z,1018.31
2018-05-18T04:58:54.904Z,1018.33
2018-05-18T04:59:54.859Z,1018.34
2018-05-18T05:00:55.249Z,1018.40
2018-05-18T05:01:54.912Z,1018.37
2018-05-18T05:02:54.942Z,1018.36
2018-05-18T05:03:54.976Z,1018.32
2018-05-18T05:04:55.003Z,1018.37
2018-05-18T05:05:55.056Z,1018.38
2018-05-18T05:06:55.373Z,1018.31
2018-05-18T05:07:55.106Z,1018.32
2018-05-18T05:08:55.127Z,1018.36
2018-05-18T05:09:55.165Z,1018.38
2018-05-18T05:10:55.193Z,1018.37
2018-05-18T05:11:55.220Z,1018.36
2018-05-18T05:12:55.533Z,1018.38
2018-05-18T05:13:55.289Z,1018.38
2018-05-18T05:14:55.319Z,1018.37
2018-05-18T05:15:55.351Z,1018.37
2018-05-18T05:16:55.389Z,1018.34
2018-05-18T05:17:55.414Z,1018.37
2018-05-18T05:18:55.766Z,1018.39
2018-05-18T05:19:55.477Z,1018.42
2018-05-18T05:20:55.506Z,1018.44
2018-05-18T05:21:55.530Z,1018.43
2018-05-18T05:22:55.580Z,1018.42
2018-05-18T05:23:55.592Z,1018.43
2018-05-18T05:24:55.933Z,1018.41
2018-05-18T05:25:55.659Z,1018.40
2018-05-18T05:26:55.684Z,1018.44
2018-05-18T05:27:55.742Z,1018.47
2018-05-18T05:28:55.758Z,1018.43
2018-05-18T05:29:55.780Z,1018.47
2018-05-18T05:30:56.060Z,1018.46
2018-05-18T05:31:55.850Z,1018.47
2018-05-18T05:32:55.899Z,1018.47
2018-05-18T05:33:55.937Z,1018.43
2018-05-18T05:34:55.934Z,1018.46
2018-05-18T05:35:55.979Z,1018.46
2018-05-18T05:36:56.311Z,1018.44
2018-05-18T05:37:56.036Z,1018.49
2018-05-18T05:38:56.102Z,1018.47
2018-05-18T05:39:56.090Z,1018.48
2018-05-18T05:40:56.153Z,1018.50
2018-05-18T05:41:56.357Z,1018.47
2018-05-18T05:42:56.189Z,1018.50
2018-05-18T05:43:56.468Z,1018.50
2018-05-18T05:44:56.249Z,1018.52
2018-05-18T05:45:56.279Z,1018.45
2018-05-18T05:46:56.401Z,1018.48
2018-05-18T05:47:56.446Z,1018.47
2018-05-18T05:48:56.374Z,1018.52
2018-05-18T05:49:56.462Z,1018.50
2018-05-18T05:50:56.692Z,1018.49
2018-05-18T05:51:56.470Z,1018.56
2018-05-18T05:52:56.556Z,1018.52
2018-05-18T05:53:56.538Z,1018.52
2018-05-18T05:54:56.564Z,1018.50
2018-05-18T05:55:56.593Z,1018.52
2018-05-18T05:56:56.632Z,1018.51
2018-05-18T05:57:56.910Z,1018.50
2018-05-18T05:58:56.689Z,1018.50
2018-05-18T05:59:56.725Z,1018.49
2018-05-18T06:00:57.127Z,1018.46
2018-05-18T06:01:56.796Z,1018.44
2018-05-18T06:02:56.814Z,1018.51
2018-05-18T06:03:56.853Z,1018.55
2018-05-18T06:04:57.131Z,1018.59
2018-05-18T06:05:56.963Z,1018.59
2018-05-18T06:06:56.982Z,1018.62
2018-05-18T06:07:56.972Z,1018.65
2018-05-18T06:08:57.012Z,1018.66
2018-05-18T06:09:57.035Z,1018.67
2018-05-18T06:10:57.072Z,1018.67
2018-05-18T06:11:57.370Z,1018.73
2018-05-18T06:12:57.136Z,1018.74
2018-05-18T06:13:57.171Z,1018.77
2018-05-18T06:14:57.191Z,1018.75
2018-05-18T06:15:57.220Z,1018.73
2018-05-18T06:16:57.270Z,1018.71
2018-05-18T06:17:57.294Z,1018.68
2018-05-18T06:18:57.615Z,1018.70
2018-05-18T06:19:57.349Z,1018.70
2018-05-18T06:20:57.391Z,1018.71
2018-05-18T06:21:57.412Z,1018.71
2018-05-18T06:22:57.445Z,1018.72
2018-05-18T06:23:57.480Z,1018.72
2018-05-18T06:24:57.512Z,1018.74
2018-05-18T06:25:57.866Z,1018.75
2018-05-18T06:26:57.570Z,1018.75
2018-05-18T06:27:57.611Z,1018.75
2018-05-18T06:28:57.630Z,1018.77
2018-05-18T06:29:57.664Z,1018.73
2018-05-18T06:30:57.793Z,1018.70
2018-05-18T06:31:57.750Z,1018.74
2018-05-18T06:32:58.014Z,1018.77
2018-05-18T06:33:57.789Z,1018.79
2018-05-18T06:34:57.948Z,1018.80
2018-05-18T06:35:57.859Z,1018.87
2018-05-18T06:36:57.893Z,1018.85
2018-05-18T06:37:57.924Z,1018.83
2018-05-18T06:38:57.947Z,1018.85
2018-05-18T06:39:58.230Z,1018.82
2018-05-18T06:40:58.009Z,1018.84
2018-05-18T06:41:58.047Z,1018.84
2018-05-18T06:42:58.073Z,1018.87
2018-05-18T06:43:58.114Z,1018.85
2018-05-18T06:44:58.138Z,1018.88
2018-05-18T06:45:58.187Z,1018.85
2018-05-18T06:46:58.452Z,1018.83
2018-05-18T06:47:58.230Z,1018.83
2018-05-18T06:48:58.261Z,1018.82
2018-05-18T06:49:58.297Z,1018.82
2018-05-18T06:50:58.325Z,1018.83
2018-05-18T06:51:58.355Z,1018.83
2018-05-18T06:52:58.391Z,1018.88
2018-05-18T06:53:58.675Z,1018.87
2018-05-18T06:54:58.459Z,1018.88
2018-05-18T06:55:58.533Z,1018.94
2018-05-18T06:56:58.523Z,1018.90
2018-05-18T06:57:58.554Z,1018.90
2018-05-18T06:58:58.582Z,1018.91
2018-05-18T06:59:58.864Z,1018.94
2018-05-18T07:00:58.649Z,1018.95
2018-05-18T07:01:58.730Z,1018.91
2018-05-18T07:02:58.707Z,1018.93
2018-05-18T07:03:58.758Z,1018.96
2018-05-18T07:04:58.780Z,1018.92
2018-05-18T07:05:59.053Z,1018.93
2018-05-18T07:06:58.837Z,1018.97
2018-05-18T07:07:58.870Z,1018.95
2018-05-18T07:08:58.899Z,1018.92
2018-05-18T07:09:58.945Z,1018.93
2018-05-18T07:10:59.264Z,1018.93
2018-05-18T07:11:59.295Z,1018.96
2018-05-18T07:12:59.038Z,1018.94
2018-05-18T07:13:59.068Z,1018.95
2018-05-18T07:14:59.105Z,1018.95
2018-05-18T07:15:59.126Z,1018.99
2018-05-18T07:16:59.180Z,1018.95
2018-05-18T07:17:59.444Z,1018.98
2018-05-18T07:18:59.223Z,1018.96
2018-05-18T07:19:59.256Z,1018.92
2018-05-18T07:20:59.340Z,1018.92
2018-05-18T07:21:59.327Z,1018.89
2018-05-18T07:22:59.394Z,1018.87
2018-05-18T07:23:59.629Z,1018.99
2018-05-18T07:24:59.416Z,1018.93
2018-05-18T07:25:59.449Z,1018.92
2018-05-18T07:26:59.491Z,1018.98
2018-05-18T07:27:59.512Z,1018.95
2018-05-18T07:28:59.544Z,1018.93
2018-05-18T07:29:59.898Z,1018.95
2018-05-18T07:30:59.616Z,1018.93
2018-05-18T07:31:59.703Z,1018.93
2018-05-18T07:32:59.672Z,1018.96
2018-05-18T07:33:59.785Z,1018.94
2018-05-18T07:34:59.736Z,1018.98
2018-05-18T07:36:00.022Z,1018.96
2018-05-18T07:36:59.803Z,1018.93
2018-05-18T07:37:59.832Z,1018.90
2018-05-18T07:38:59.864Z,1018.91
2018-05-18T07:39:59.896Z,1018.87
2018-05-18T07:40:59.995Z,1018.96
2018-05-18T07:42:00.210Z,1018.92
2018-05-18T07:43:00.000Z,1018.93
2018-05-18T07:44:00.047Z,1019.00
2018-05-18T07:45:00.056Z,1019.03
2018-05-18T07:46:00.108Z,1018.98
2018-05-18T07:47:00.125Z,1018.98
2018-05-18T07:48:00.505Z,1018.97
2018-05-18T07:49:00.204Z,1018.99
2018-05-18T07:50:00.290Z,1018.99
2018-05-18T07:51:00.255Z,1019.01
2018-05-18T07:52:00.285Z,1019.02
2018-05-18T07:53:00.313Z,1019.02
2018-05-18T07:54:00.605Z,1019.01
2018-05-18T07:55:00.383Z,1018.97
2018-05-18T07:56:00.413Z,1019.05
2018-05-18T07:57:00.447Z,1019.03
2018-05-18T07:58:00.479Z,1018.98
2018-05-18T07:59:00.508Z,1018.99
2018-05-18T08:00:00.851Z,1018.94
2018-05-18T08:01:00.591Z,1018.91
2018-05-18T08:02:00.623Z,1018.98
2018-05-18T08:03:00.644Z,1018.96
2018-05-18T08:04:00.675Z,1018.99
2018-05-18T08:05:00.717Z,1018.98
2018-05-18T08:06:00.986Z,1018.97
2018-05-18T08:07:00.768Z,1019.01
2018-05-18T08:08:00.799Z,1019.00
2018-05-18T08:09:00.831Z,1019.01
2018-05-18T08:10:00.886Z,1018.99
2018-05-18T08:11:00.945Z,1019.05
2018-05-18T08:12:01.227Z,1019.01
2018-05-18T08:13:00.959Z,1019.05
2018-05-18T08:14:01.193Z,1019.05
2018-05-18T08:15:01.096Z,1019.05
2018-05-18T08:16:01.056Z,1019.06
2018-05-18T08:17:01.101Z,1019.11
2018-05-18T08:18:01.125Z,1019.11
2018-05-18T08:19:01.508Z,1019.05
2018-05-18T08:20:01.187Z,1019.04
2018-05-18T08:21:01.225Z,1019.08
2018-05-18T08:22:01.254Z,1019.04
2018-05-18T08:23:01.291Z,1019.04
2018-05-18T08:24:01.320Z,1019.04
2018-05-18T08:25:01.356Z,1019.04
2018-05-18T08:26:01.690Z,1019.02
2018-05-18T08:27:01.420Z,1018.97
2018-05-18T08:28:01.449Z,1018.96
2018-05-18T08:29:01.482Z,1018.93
2018-05-18T08:30:01.518Z,1018.94
2018-05-18T08:31:01.548Z,1018.97
2018-05-18T08:32:01.571Z,1018.93
2018-05-18T08:33:01.855Z,1018.89
2018-05-18T08:34:01.664Z,1018.93
2018-05-18T08:35:01.686Z,1018.90
2018-05-18T08:36:01.708Z,1018.85
2018-05-18T08:37:01.739Z,1018.93
2018-05-18T08:38:01.771Z,1018.91
2018-05-18T08:39:01.957Z,1018.90
2018-05-18T08:40:02.091Z,1018.85
2018-05-18T08:41:01.866Z,1018.95
2018-05-18T08:42:01.898Z,1018.95
2018-05-18T08:43:01.931Z,1018.90
2018-05-18T08:44:01.961Z,1018.95
2018-05-18T08:45:02.009Z,1018.98
2018-05-18T08:46:02.029Z,1018.98
2018-05-18T08:47:02.308Z,1018.97
2018-05-18T08:48:02.098Z,1019.01
2018-05-18T08:49:02.122Z,1018.98
2018-05-18T08:50:02.204Z,1018.98
2018-05-18T08:51:02.193Z,1018.99
2018-05-18T08:52:02.222Z,1018.91
2018-05-18T08:53:02.253Z,1018.96
2018-05-18T08:54:02.599Z,1018.95
2018-05-18T08:55:02.326Z,1018.95
2018-05-18T08:56:02.351Z,1018.97
2018-05-18T08:57:02.388Z,1018.90
2018-05-18T08:58:02.416Z,1018.94
2018-05-18T08:59:02.451Z,1018.95
2018-05-18T09:00:02.477Z,1018.90
2018-05-18T09:01:02.771Z,1018.93
2018-05-18T09:02:02.550Z,1018.96
2018-05-18T09:03:02.579Z,1018.92
2018-05-18T09:04:02.611Z,1018.92
2018-05-18T09:05:02.658Z,1018.94
2018-05-18T09:06:02.681Z,1018.95
2018-05-18T09:07:02.713Z,1018.98
2018-05-18T09:08:02.993Z,1018.93
2018-05-18T09:09:02.772Z,1018.97
2018-05-18T09:10:02.833Z,1018.96
2018-05-18T09:11:02.847Z,1018.96
2018-05-18T09:12:02.877Z,1018.94
2018-05-18T09:13:02.917Z,1018.90
2018-05-18T09:14:02.938Z,1018.93
2018-05-18T09:15:03.228Z,1018.94
2018-05-18T09:16:03.047Z,1018.90
2018-05-18T09:17:03.030Z,1018.86
2018-05-18T09:18:03.093Z,1018.93
2018-05-18T09:19:03.098Z,1018.90
2018-05-18T09:20:03.127Z,1018.93
2018-05-18T09:21:03.160Z,1018.91
2018-05-18T09:22:03.498Z,1018.89
2018-05-18T09:23:03.227Z,1018.89
2018-05-18T09:24:03.358Z,1018.88
2018-05-18T09:25:03.291Z,1018.90
2018-05-18T09:26:03.333Z,1018.92
2018-05-18T09:27:03.361Z,1018.93
2018-05-18T09:28:03.394Z,1018.90
2018-05-18T09:29:03.675Z,1018.91
2018-05-18T09:30:03.455Z,1018.96
2018-05-18T09:31:03.484Z,1018.92
2018-05-18T09:32:03.518Z,1018.94
2018-05-18T09:33:03.548Z,1018.90
2018-05-18T09:34:03.704Z,1018.87
2018-05-18T09:35:03.617Z,1018.87
2018-05-18T09:36:03.898Z,1018.93
2018-05-18T09:37:03.678Z,1018.93
2018-05-18T09:38:03.719Z,1018.85
2018-05-18T09:39:03.744Z,1018.84
2018-05-18T09:40:03.780Z,1018.88
2018-05-18T09:41:03.830Z,1018.94
2018-05-18T09:42:04.095Z,1018.95
2018-05-18T09:43:03.875Z,1018.91
2018-05-18T09:44:03.910Z,1018.89
2018-05-18T09:45:04.052Z,1018.91
2018-05-18T09:46:03.978Z,1018.84
2018-05-18T09:47:04.007Z,1018.88
2018-05-18T09:48:04.289Z,1018.83
2018-05-18T09:49:04.086Z,1018.84
2018-05-18T09:50:04.104Z,1018.81
2018-05-18T09:51:04.135Z,1018.86
2018-05-18T09:52:04.167Z,1018.86
2018-05-18T09:53:04.203Z,1018.88
2018-05-18T09:54:04.542Z,1018.85
2018-05-18T09:55:04.436Z,1018.81
2018-05-18T09:56:04.298Z,1018.80
2018-05-18T09:57:04.336Z,1018.83
2018-05-18T09:58:04.367Z,1018.85
2018-05-18T09:59:04.395Z,1018.86
2018-05-18T10:00:04.732Z,1018.86
2018-05-18T10:01:04.467Z,1018.83
2018-05-18T10:02:04.496Z,1018.86
2018-05-18T10:03:04.537Z,1018.89
2018-05-18T10:04:04.563Z,1018.88
2018-05-18T10:05:04.660Z,1018.92
2018-05-18T10:06:04.925Z,1018.92
2018-05-18T10:07:04.753Z,1018.91
2018-05-18T10:08:04.692Z,1018.89
2018-05-18T10:09:04.728Z,1018.94
2018-05-18T10:10:04.761Z,1019.03
2018-05-18T10:11:04.789Z,1018.95
2018-05-18T10:12:05.071Z,1018.98
2018-05-18T10:13:04.853Z,1018.89
2018-05-18T10:14:04.891Z,1018.91
2018-05-18T10:15:04.916Z,1018.93
2018-05-18T10:16:04.955Z,1018.93
2018-05-18T10:17:04.987Z,1018.90
2018-05-18T10:18:05.270Z,1018.86
2018-05-18T10:19:05.052Z,1018.90
2018-05-18T10:20:05.083Z,1018.93
2018-05-18T10:21:05.114Z,1018.95
2018-05-18T10:22:05.143Z,1018.91
2018-05-18T10:23:05.178Z,1018.88
2018-05-18T10:24:05.507Z,1018.88
2018-05-18T10:25:05.247Z,1018.82
2018-05-18T10:26:05.281Z,1018.83
2018-05-18T10:27:05.355Z,1018.83
2018-05-18T10:28:05.339Z,1018.90
2018-05-18T10:29:05.374Z,1018.82
2018-05-18T10:30:05.655Z,1018.82
2018-05-18T10:31:05.439Z,1018.80
2018-05-18T10:32:05.489Z,1018.81
2018-05-18T10:33:05.506Z,1018.71
2018-05-18T10:34:05.539Z,1018.77
2018-05-18T10:35:05.672Z,1018.74
2018-05-18T10:36:05.903Z,1018.69
2018-05-18T10:37:05.634Z,1018.70
2018-05-18T10:38:05.687Z,1018.71
2018-05-18T10:39:05.715Z,1018.60
2018-05-18T10:40:06.143Z,1018.66
2018-05-18T10:41:05.768Z,1018.64
2018-05-18T10:42:06.046Z,1018.67
2018-05-18T10:43:05.833Z,1018.64
2018-05-18T10:44:05.866Z,1018.63
2018-05-18T10:45:05.895Z,1018.67
2018-05-18T10:46:05.939Z,1018.63
2018-05-18T10:47:05.963Z,1018.65
2018-05-18T10:48:06.294Z,1018.60
2018-05-18T10:49:06.059Z,1018.57
2018-05-18T10:50:06.063Z,1018.63
2018-05-18T10:51:06.090Z,1018.64
2018-05-18T10:52:06.124Z,1018.62
2018-05-18T10:53:06.224Z,1018.62
2018-05-18T10:54:06.441Z,1018.64
2018-05-18T10:55:06.225Z,1018.60
2018-05-18T10:56:06.464Z,1018.58
2018-05-18T10:57:06.303Z,1018.57
2018-05-18T10:58:06.325Z,1018.57
2018-05-18T10:59:06.354Z,1018.56
2018-05-18T11:00:06.388Z,1018.51
2018-05-18T11:01:06.721Z,1018.57
2018-05-18T11:02:06.457Z,1018.51
2018-05-18T11:03:06.486Z,1018.50
2018-05-18T11:04:06.522Z,1018.45
2018-05-18T11:05:06.551Z,1018.48
2018-05-18T11:06:06.586Z,1018.50
2018-05-18T11:07:06.616Z,1018.51
2018-05-18T11:08:06.907Z,1018.51
2018-05-18T11:09:06.701Z,1018.47
2018-05-18T11:10:06.724Z,1018.44
2018-05-18T11:11:06.749Z,1018.43
2018-05-18T11:12:06.787Z,1018.45
2018-05-18T11:13:06.817Z,1018.38
2018-05-18T11:14:06.948Z,1018.40
2018-05-18T11:15:07.180Z,1018.41
2018-05-18T11:16:06.911Z,1018.43
2018-05-18T11:17:06.957Z,1018.44
2018-05-18T11:18:06.978Z,1018.41
2018-05-18T11:19:07.009Z,1018.35
2018-05-18T11:20:07.119Z,1018.45
2018-05-18T11:21:07.085Z,1018.39
2018-05-18T11:22:07.159Z,1018.36
2018-05-18T11:23:07.140Z,1018.34
2018-05-18T11:24:07.175Z,1018.31
2018-05-18T11:25:07.217Z,1018.35
2018-05-18T11:26:07.242Z,1018.34
2018-05-18T11:27:07.286Z,1018.34
2018-05-18T11:28:07.608Z,1018.31
2018-05-18T11:29:07.350Z,1018.25
2018-05-18T11:30:07.376Z,1018.27
2018-05-18T11:31:07.413Z,1018.30
2018-05-18T11:32:07.438Z,1018.27
2018-05-18T11:33:07.486Z,1018.23
2018-05-18T11:34:07.507Z,1018.27
2018-05-18T11:35:07.855Z,1018.25
2018-05-18T11:36:07.572Z,1018.25
2018-05-18T11:37:07.610Z,1018.33
2018-05-18T11:38:07.642Z,1018.21
2018-05-18T11:39:07.672Z,1018.26
2018-05-18T11:40:07.708Z,1018.25
2018-05-18T11:41:07.742Z,1018.21
2018-05-18T11:42:08.026Z,1018.17
2018-05-18T11:43:07.804Z,1018.17
2018-05-18T11:44:07.863Z,1018.16
2018-05-18T11:45:07.890Z,1018.24
2018-05-18T11:46:07.918Z,1018.22
2018-05-18T11:47:07.960Z,1018.23
2018-05-18T11:48:08.279Z,1018.20
2018-05-18T11:49:08.255Z,1018.19
2018-05-18T11:50:08.051Z,1018.17
2018-05-18T11:51:08.070Z,1018.21
2018-05-18T11:52:08.103Z,1018.15
2018-05-18T11:53:08.139Z,1018.14
2018-05-18T11:54:08.168Z,1018.11
2018-05-18T11:55:08.200Z,1018.10
2018-05-18T11:56:08.544Z,1018.09
2018-05-18T11:57:08.265Z,1018.09
2018-05-18T11:58:08.353Z,1018.16
2018-05-18T11:59:08.395Z,1018.10
2018-05-18T12:00:08.364Z,1018.12
2018-05-18T12:01:08.408Z,1018.04
2018-05-18T12:02:08.441Z,1018.05
2018-05-18T12:03:08.716Z,1018.05
2018-05-18T12:04:08.566Z,1018.05
2018-05-18T12:05:08.533Z,1018.05
2018-05-18T12:06:08.575Z,1018.03